createdAt,value
2019-05-25T00:00:49.604Z,2.73
2019-05-25T00:03:17.632Z,2.90
2019-05-25T00:05:45.672Z,2.83
2019-05-25T00:08:13.709Z,2.50
2019-05-25T00:10:41.741Z,3.00
2019-05-25T00:13:09.759Z,2.77
2019-05-25T00:15:38.067Z,3.00
2019-05-25T00:18:06.117Z,2.77
2019-05-25T00:20:34.239Z,2.80
2019-05-25T00:23:02.383Z,3.27
2019-05-25T00:25:30.394Z,2.93
2019-05-25T00:27:58.411Z,2.37
2019-05-25T00:30:26.464Z,3.23
2019-05-25T00:32:54.501Z,3.10
2019-05-25T00:35:22.658Z,3.27
2019-05-25T00:37:50.847Z,3.40
2019-05-25T00:40:18.884Z,3.27
2019-05-25T00:42:46.889Z,3.10
2019-05-25T00:45:15.010Z,3.40
2019-05-25T00:47:43.046Z,3.23
2019-05-25T00:50:11.415Z,3.90
2019-05-25T00:52:39.899Z,3.77
2019-05-25T00:55:09.012Z,4.53
2019-05-25T00:57:37.082Z,4.07
2019-05-25T01:00:06.194Z,4.13
2019-05-25T01:02:34.684Z,4.17
2019-05-25T01:05:02.789Z,3.83
2019-05-25T01:07:30.959Z,4.03
2019-05-25T01:09:59.067Z,4.07
2019-05-25T01:12:27.152Z,4.37
2019-05-25T01:14:55.358Z,3.90
2019-05-25T01:17:23.788Z,3.80
2019-05-25T01:19:51.963Z,4.60
2019-05-25T01:22:19.984Z,4.47
2019-05-25T01:24:48.098Z,4.17
2019-05-25T01:27:16.187Z,4.30
2019-05-25T01:29:44.201Z,5.00
2019-05-25T01:32:12.233Z,5.17
2019-05-25T01:34:40.272Z,4.47
2019-05-25T01:37:08.356Z,4.30
2019-05-25T01:39:36.493Z,4.13
2019-05-25T01:42:04.552Z,4.23
2019-05-25T01:44:32.691Z,4.03
2019-05-25T01:47:00.748Z,4.30
2019-05-25T01:49:28.787Z,3.93
2019-05-25T01:51:56.835Z,4.20
2019-05-25T01:54:24.919Z,4.63
2019-05-25T01:56:52.943Z,4.70
2019-05-25T01:59:20.960Z,4.63
2019-05-25T02:01:49.091Z,4.43
2019-05-25T02:04:17.111Z,4.80
2019-05-25T02:06:45.272Z,4.10
2019-05-25T02:09:13.400Z,4.37
2019-05-25T02:11:41.425Z,4.37
2019-05-25T02:14:09.712Z,4.23
2019-05-25T02:16:37.776Z,3.63
2019-05-25T02:19:05.804Z,3.67
2019-05-25T02:21:33.913Z,4.13
2019-05-25T02:24:02.106Z,3.93
2019-05-25T02:26:30.247Z,3.77
2019-05-25T02:28:58.234Z,4.17
2019-05-25T02:31:26.386Z,4.47
2019-05-25T02:33:54.387Z,4.00
2019-05-25T02:36:22.408Z,3.50
2019-05-25T02:38:50.557Z,4.53
2019-05-25T02:41:18.551Z,4.30
2019-05-25T02:43:46.586Z,4.07
2019-05-25T02:46:14.594Z,4.27
2019-05-25T02:48:42.721Z,4.03
2019-05-25T02:51:10.745Z,3.90
2019-05-25T02:53:38.802Z,4.13
2019-05-25T02:56:06.827Z,4.23
2019-05-25T02:58:34.967Z,4.17
2019-05-25T03:01:02.993Z,4.60
2019-05-25T03:03:31.035Z,5.07
2019-05-25T03:05:59.171Z,4.73
2019-05-25T03:08:27.234Z,4.00
2019-05-25T03:10:55.267Z,4.20
2019-05-25T03:13:23.433Z,4.60
2019-05-25T03:15:51.569Z,4.30
2019-05-25T03:18:19.685Z,3.93
2019-05-25T03:20:47.849Z,4.23
2019-05-25T03:23:15.879Z,3.97
2019-05-25T03:25:49.468Z,4.53
2019-05-25T03:28:13.588Z,4.43
2019-05-25T03:30:41.768Z,4.30
2019-05-25T03:33:09.815Z,4.40
2019-05-25T03:35:37.840Z,4.63
2019-05-25T03:38:05.987Z,3.80
2019-05-25T03:40:33.972Z,3.70
2019-05-25T03:43:02.014Z,4.27
2019-05-25T03:45:30.109Z,4.00
2019-05-25T03:47:58.120Z,3.60
2019-05-25T03:50:26.163Z,3.50
2019-05-25T03:52:54.222Z,4.10
2019-05-25T03:55:22.247Z,3.93
2019-05-25T03:57:50.262Z,4.00
2019-05-25T04:00:21.004Z,4.40
2019-05-25T04:02:49.124Z,4.90
2019-05-25T04:05:17.199Z,5.33
2019-05-25T04:07:45.218Z,4.37
2019-05-25T04:10:13.233Z,4.50
2019-05-25T04:12:41.286Z,4.70
2019-05-25T04:15:09.319Z,7.87
2019-05-25T04:17:37.345Z,4.83
2019-05-25T04:20:05.486Z,4.80
2019-05-25T04:22:33.513Z,4.90
2019-05-25T04:25:01.572Z,3.57
2019-05-25T04:27:29.646Z,3.83
2019-05-25T04:29:57.671Z,4.80
2019-05-25T04:32:25.688Z,4.60
2019-05-25T04:34:53.718Z,4.90
2019-05-25T04:37:21.750Z,4.53
2019-05-25T04:39:49.910Z,5.13
2019-05-25T04:42:17.938Z,4.87
2019-05-25T04:44:45.978Z,4.37
2019-05-25T04:47:26.617Z,4.80
2019-05-25T04:49:43.695Z,4.97
2019-05-25T04:52:11.705Z,4.60
2019-05-25T04:54:39.783Z,4.83
2019-05-25T04:57:07.880Z,5.07
2019-05-25T04:59:35.989Z,4.77
2019-05-25T05:02:58.241Z,4.43
2019-05-25T05:05:26.273Z,4.80
2019-05-25T05:08:03.573Z,4.90
2019-05-25T05:10:31.627Z,4.50
2019-05-25T05:12:59.724Z,4.13
2019-05-25T05:15:27.669Z,4.23
2019-05-25T05:17:55.686Z,3.60
2019-05-25T05:20:23.722Z,3.77
2019-05-25T05:22:51.735Z,4.07
2019-05-25T05:25:19.777Z,4.27
2019-05-25T05:27:47.783Z,3.93
2019-05-25T05:30:17.418Z,3.40
2019-05-25T05:32:45.435Z,3.80
2019-05-25T05:35:13.963Z,3.77
2019-05-25T05:37:42.240Z,3.50
2019-05-25T05:40:10.255Z,3.20
2019-05-25T05:42:38.978Z,3.47
2019-05-25T05:45:07.822Z,3.43
2019-05-25T05:47:35.856Z,4.03
2019-05-25T05:50:09.455Z,3.63
2019-05-25T05:55:59.117Z,3.23
2019-05-25T05:58:27.160Z,3.20
2019-05-25T06:00:55.202Z,3.40
2019-05-25T06:03:23.231Z,3.70
2019-05-25T06:06:24.445Z,3.70
2019-05-25T06:08:52.482Z,3.70
2019-05-25T06:14:30.153Z,3.30
2019-05-25T06:16:58.198Z,3.63
2019-05-25T06:19:26.231Z,3.20
2019-05-25T06:21:54.253Z,2.93
2019-05-25T06:24:22.287Z,3.30
2019-05-25T06:26:50.337Z,3.47
2019-05-25T06:29:18.671Z,3.90
2019-05-25T06:31:47.180Z,4.37
2019-05-25T06:34:15.267Z,4.90
2019-05-25T06:36:43.334Z,4.43
2019-05-25T06:39:11.360Z,4.17
2019-05-25T06:41:39.402Z,4.53
2019-05-25T06:44:08.234Z,4.53
2019-05-25T06:46:39.638Z,4.10
2019-05-25T06:49:05.959Z,3.93
2019-05-25T06:51:34.002Z,3.83
2019-05-25T06:54:02.005Z,3.40
2019-05-25T06:56:30.041Z,3.43
2019-05-25T06:58:58.101Z,3.77
2019-05-25T07:01:26.147Z,3.83
2019-05-25T07:03:54.165Z,2.93
2019-05-25T07:06:22.183Z,3.20
2019-05-25T07:08:50.177Z,3.00
2019-05-25T07:11:18.203Z,3.20
2019-05-25T07:13:46.227Z,2.87
2019-05-25T07:16:14.361Z,2.97
2019-05-25T07:18:42.433Z,2.60
2019-05-25T07:21:10.636Z,3.00
2019-05-25T07:23:38.636Z,3.50
2019-05-25T07:26:06.672Z,3.53
2019-05-25T07:28:34.719Z,3.33
2019-05-25T07:31:02.770Z,2.87
2019-05-25T07:33:30.805Z,2.20
2019-05-25T07:35:58.825Z,2.70
2019-05-25T07:38:26.835Z,2.40
2019-05-25T07:40:54.889Z,2.30
2019-05-25T07:43:23.065Z,2.00
2019-05-25T07:45:51.087Z,1.83
2019-05-25T07:48:19.249Z,5.23
2019-05-25T07:50:47.306Z,9.57
2019-05-25T07:53:15.330Z,3.50
2019-05-25T07:55:43.350Z,4.93
2019-05-25T07:58:17.171Z,2.60
2019-05-25T08:00:41.054Z,3.90
2019-05-25T08:03:09.089Z,2.57
2019-05-25T08:05:37.412Z,1.63
2019-05-25T08:08:05.662Z,2.80
2019-05-25T08:10:33.806Z,2.30
2019-05-25T08:13:01.980Z,2.23
2019-05-25T08:15:30.065Z,1.77
2019-05-25T08:17:58.505Z,1.37
2019-05-25T08:20:26.666Z,1.80
2019-05-25T08:22:55.131Z,1.57
2019-05-25T08:25:23.168Z,1.50
2019-05-25T08:27:51.223Z,2.00
2019-05-25T08:30:19.445Z,1.77
2019-05-25T08:32:49.845Z,2.17
2019-05-25T08:35:17.989Z,1.97
2019-05-25T08:37:46.403Z,3.27
2019-05-25T08:40:14.474Z,1.90
2019-05-25T08:42:42.480Z,2.13
2019-05-25T08:45:10.802Z,2.20
2019-05-25T08:47:38.853Z,2.07
2019-05-25T08:50:07.848Z,1.90
2019-05-25T08:52:35.885Z,2.03
2019-05-25T08:55:04.158Z,1.70
2019-05-25T08:57:32.598Z,2.53
2019-05-25T09:00:00.621Z,2.30
2019-05-25T09:02:28.702Z,2.30
2019-05-25T09:04:56.854Z,3.50
2019-05-25T09:07:24.960Z,2.07
2019-05-25T09:09:52.963Z,1.70
2019-05-25T09:12:20.990Z,2.17
2019-05-25T09:14:49.137Z,1.97
2019-05-25T09:17:17.152Z,2.10
2019-05-25T09:19:45.184Z,1.40
2019-05-25T09:22:13.298Z,1.73
2019-05-25T09:24:41.527Z,1.37
2019-05-25T09:27:09.578Z,1.50
2019-05-25T09:29:55.762Z,1.30
2019-05-25T09:32:23.727Z,3.40
2019-05-25T09:34:54.622Z,2.37
2019-05-25T09:37:22.650Z,1.80
2019-05-25T09:39:50.679Z,1.50
2019-05-25T09:42:18.728Z,1.80
2019-05-25T09:44:46.940Z,2.30
2019-05-25T09:47:15.057Z,1.90
2019-05-25T09:49:43.116Z,1.30
2019-05-25T09:52:11.173Z,1.40
2019-05-25T09:54:39.204Z,1.53
2019-05-25T09:57:07.371Z,2.50
2019-05-25T09:59:35.389Z,1.33
2019-05-25T10:02:03.430Z,1.17
2019-05-25T10:04:31.446Z,1.30
2019-05-25T10:06:59.494Z,1.60
2019-05-25T10:09:27.543Z,1.40
2019-05-25T10:11:55.608Z,1.67
2019-05-25T10:14:23.622Z,1.17
2019-05-25T10:16:51.668Z,1.30
2019-05-25T10:19:19.721Z,1.70
2019-05-25T10:21:47.761Z,1.60
2019-05-25T10:24:15.962Z,1.60
2019-05-25T10:26:44.009Z,2.00
2019-05-25T10:29:12.027Z,1.80
2019-05-25T10:31:40.084Z,1.93
2019-05-25T10:34:08.144Z,3.17
2019-05-25T10:36:36.184Z,2.80
2019-05-25T10:39:06.419Z,4.23
2019-05-25T10:41:34.460Z,2.63
2019-05-25T10:44:02.621Z,1.90
2019-05-25T10:46:30.682Z,2.37
2019-05-25T10:48:58.682Z,2.07
2019-05-25T10:51:26.700Z,3.67
2019-05-25T10:53:54.737Z,2.30
2019-05-25T10:56:22.779Z,4.50
2019-05-25T10:58:50.957Z,2.70
2019-05-25T11:01:19.095Z,2.40
2019-05-25T11:03:47.154Z,3.10
2019-05-25T11:06:15.529Z,2.03
2019-05-25T11:08:43.611Z,2.63
2019-05-25T11:11:11.645Z,3.60
2019-05-25T11:13:39.778Z,2.50
2019-05-25T11:16:07.745Z,3.10
2019-05-25T11:18:35.815Z,2.73
2019-05-25T11:21:03.850Z,2.57
2019-05-25T11:23:31.887Z,2.40
2019-05-25T11:25:59.918Z,2.60
2019-05-25T11:31:37.878Z,4.77
2019-05-25T11:34:06.334Z,3.13
2019-05-25T11:39:20.461Z,2.37
2019-05-25T11:41:48.614Z,2.40
2019-05-25T11:44:16.716Z,2.90
2019-05-25T11:46:44.813Z,3.57
2019-05-25T11:49:22.046Z,9.33
2019-05-25T11:54:36.061Z,6.37
2019-05-25T11:57:04.270Z,4.10
2019-05-25T11:59:32.988Z,3.17
2019-05-25T12:02:01.166Z,2.40
2019-05-25T12:04:29.489Z,2.77
2019-05-25T12:06:57.642Z,2.17
2019-05-25T12:09:25.772Z,2.43
2019-05-25T12:11:53.924Z,1.73
2019-05-25T12:14:22.159Z,2.27
2019-05-25T12:16:50.349Z,3.20
2019-05-25T12:19:18.569Z,3.30
2019-05-25T12:21:46.648Z,3.00
2019-05-25T12:24:14.789Z,2.87
2019-05-25T12:30:05.681Z,2.80
2019-05-25T12:32:33.733Z,2.67
2019-05-25T12:38:11.482Z,3.50
2019-05-25T12:43:49.794Z,3.13
2019-05-25T12:46:17.837Z,3.50
2019-05-25T12:48:46.106Z,3.23
2019-05-25T12:51:17.469Z,2.93
2019-05-25T12:53:43.902Z,3.60
2019-05-25T12:56:12.223Z,4.30
2019-05-25T12:58:40.345Z,4.60
2019-05-25T13:01:08.640Z,3.77
2019-05-25T13:03:36.638Z,4.00
2019-05-25T13:06:04.663Z,3.47
2019-05-25T13:08:32.754Z,3.73
2019-05-25T13:11:00.914Z,5.20
2019-05-25T13:13:29.329Z,6.07
2019-05-25T13:15:57.628Z,5.00
2019-05-25T13:18:25.718Z,3.77
2019-05-25T13:20:54.292Z,3.97
2019-05-25T13:23:22.560Z,3.27
2019-05-25T13:25:50.725Z,3.53
2019-05-25T13:28:18.915Z,3.97
2019-05-25T13:30:47.067Z,3.80
2019-05-25T13:33:15.497Z,2.97
2019-05-25T13:35:43.613Z,3.70
2019-05-25T13:38:11.745Z,2.93
2019-05-25T13:40:39.846Z,3.07
2019-05-25T13:43:08.023Z,4.40
2019-05-25T13:45:36.152Z,2.70
2019-05-25T13:48:04.697Z,2.83
2019-05-25T13:50:33.255Z,3.10
2019-05-25T13:53:01.506Z,2.77
2019-05-25T13:55:29.758Z,3.97
2019-05-25T13:57:58.175Z,4.43
2019-05-25T14:00:26.633Z,5.07
2019-05-25T14:02:54.754Z,4.00
2019-05-25T14:05:22.904Z,4.33
2019-05-25T14:07:51.194Z,3.50
2019-05-25T14:10:19.261Z,3.73
2019-05-25T14:12:47.504Z,3.90
2019-05-25T14:15:15.860Z,3.43
2019-05-25T14:17:44.204Z,3.13
2019-05-25T14:20:12.411Z,3.17
2019-05-25T14:22:40.604Z,2.73
2019-05-25T14:25:08.687Z,3.00
2019-05-25T14:27:36.768Z,3.13
2019-05-25T14:30:05.680Z,2.40
2019-05-25T14:32:33.992Z,2.33
2019-05-25T14:35:01.994Z,2.97
2019-05-25T14:37:30.049Z,3.30
2019-05-25T14:39:58.508Z,2.90
2019-05-25T14:42:26.570Z,2.73
2019-05-25T14:44:54.841Z,2.97
2019-05-25T14:47:22.978Z,2.27
2019-05-25T14:53:12.844Z,3.63
2019-05-25T14:56:11.486Z,3.73
2019-05-25T14:58:39.792Z,2.17
2019-05-25T15:01:08.332Z,2.77
2019-05-25T15:03:36.755Z,3.83
2019-05-25T15:06:04.981Z,3.00
2019-05-25T15:08:33.569Z,2.87
2019-05-25T15:11:02.351Z,2.73
2019-05-25T15:13:30.542Z,3.53
2019-05-25T15:15:58.963Z,4.57
2019-05-25T15:18:27.381Z,3.87
2019-05-25T15:20:55.469Z,3.73
2019-05-25T15:23:23.650Z,4.27
2019-05-25T15:25:51.848Z,3.07
2019-05-25T15:28:20.171Z,2.80
2019-05-25T15:30:48.579Z,3.00
2019-05-25T15:33:16.672Z,2.40
2019-05-25T15:35:45.706Z,3.87
2019-05-25T15:38:14.002Z,2.03
2019-05-25T15:40:42.224Z,2.97
2019-05-25T15:43:10.470Z,4.43
2019-05-25T15:45:38.527Z,3.70
2019-05-25T15:48:06.742Z,2.53
2019-05-25T15:50:35.082Z,3.63
2019-05-25T15:53:03.794Z,3.70
2019-05-25T15:55:32.199Z,3.23
2019-05-25T15:58:01.083Z,2.77
2019-05-25T16:00:45.695Z,2.27
2019-05-25T16:03:14.242Z,4.17
2019-05-25T16:05:42.334Z,4.57
2019-05-25T16:08:10.617Z,3.77
2019-05-25T16:10:38.848Z,4.37
2019-05-25T16:13:07.261Z,4.43
2019-05-25T16:15:35.262Z,5.50
2019-05-25T16:18:03.345Z,4.60
2019-05-25T16:20:31.649Z,5.30
2019-05-25T16:22:59.855Z,5.80
2019-05-25T16:25:28.445Z,3.60
2019-05-25T16:27:56.739Z,6.40
2019-05-25T16:30:25.321Z,3.87
2019-05-25T16:33:30.017Z,3.07
2019-05-25T16:35:58.478Z,2.90
2019-05-25T16:38:26.723Z,2.70
2019-05-25T16:40:54.732Z,2.90
2019-05-25T16:43:22.784Z,2.87
2019-05-25T16:45:51.394Z,3.27
2019-05-25T16:48:20.514Z,5.37
2019-05-25T16:50:49.319Z,4.40
2019-05-25T16:53:18.004Z,4.43
2019-05-25T16:58:55.933Z,4.60
2019-05-25T17:01:24.699Z,6.53
2019-05-25T17:03:53.611Z,5.00
2019-05-25T17:06:21.876Z,3.67
2019-05-25T17:08:50.460Z,3.60
2019-05-25T17:11:19.530Z,3.80
2019-05-25T17:13:48.418Z,5.93
2019-05-25T17:16:16.972Z,5.33
2019-05-25T17:18:45.763Z,4.47
2019-05-25T17:21:14.820Z,3.97
2019-05-25T17:23:43.872Z,3.77
2019-05-25T17:26:12.373Z,5.73
2019-05-25T17:28:41.125Z,5.37
2019-05-25T17:31:09.360Z,5.53
2019-05-25T17:33:46.124Z,8.00
2019-05-25T17:36:08.678Z,5.07
2019-05-25T17:38:37.370Z,4.57
2019-05-25T17:41:06.150Z,4.00
2019-05-25T17:43:34.577Z,7.27
2019-05-25T17:46:02.756Z,5.40
2019-05-25T17:48:30.818Z,3.90
2019-05-25T17:50:58.863Z,4.50
2019-05-25T17:53:26.921Z,4.33
2019-05-25T17:55:58.241Z,4.23
2019-05-25T17:58:26.441Z,4.10
2019-05-25T18:00:54.485Z,7.43
2019-05-25T18:03:22.614Z,4.13
2019-05-25T18:05:50.645Z,4.37
2019-05-25T18:08:18.794Z,3.77
2019-05-25T18:10:53.560Z,5.10
2019-05-25T18:13:16.623Z,4.47
2019-05-25T18:15:44.693Z,4.37
2019-05-25T18:18:12.773Z,6.83
2019-05-25T18:20:40.845Z,4.00
2019-05-25T18:23:08.914Z,4.57
2019-05-25T18:25:36.927Z,5.40
2019-05-25T18:28:05.484Z,4.63
2019-05-25T18:30:33.775Z,8.10
2019-05-25T18:33:01.822Z,5.53
2019-05-25T18:35:29.917Z,3.80
2019-05-25T18:37:58.167Z,3.70
2019-05-25T18:40:26.199Z,2.93
2019-05-25T18:42:54.221Z,3.63
2019-05-25T18:45:22.247Z,3.50
2019-05-25T18:47:50.312Z,3.33
2019-05-25T18:50:18.776Z,2.80
2019-05-25T18:52:46.847Z,3.33
2019-05-25T18:55:15.099Z,4.13
2019-05-25T18:57:43.118Z,5.00
2019-05-25T19:00:11.629Z,5.17
2019-05-25T19:02:39.679Z,7.50
2019-05-25T19:05:08.108Z,6.10
2019-05-25T19:07:36.210Z,8.47
2019-05-25T19:10:05.102Z,5.03
2019-05-25T19:12:33.209Z,3.97
2019-05-25T19:18:24.348Z,3.23
2019-05-25T19:20:52.358Z,3.07
2019-05-25T19:23:29.699Z,3.97
2019-05-25T19:25:58.032Z,3.73
2019-05-25T19:28:26.934Z,4.40
2019-05-25T19:30:58.230Z,3.60
2019-05-25T19:33:26.347Z,2.87
2019-05-25T19:35:54.622Z,4.10
2019-05-25T19:38:22.811Z,4.27
2019-05-25T19:40:50.972Z,3.43
2019-05-25T19:43:46.641Z,2.97
2019-05-25T19:46:14.698Z,3.47
2019-05-25T19:48:43.004Z,2.80
2019-05-25T19:51:11.114Z,5.20
2019-05-25T19:53:39.312Z,3.10
2019-05-25T19:56:07.418Z,3.70
2019-05-25T19:58:35.665Z,3.67
2019-05-25T20:01:03.823Z,2.67
2019-05-25T20:03:31.862Z,3.00
2019-05-25T20:05:59.893Z,2.90
2019-05-25T20:08:28.311Z,2.43
2019-05-25T20:11:20.072Z,3.00
2019-05-25T20:13:48.150Z,3.03
2019-05-25T20:16:16.294Z,2.67
2019-05-25T20:18:44.618Z,2.87
2019-05-25T20:21:12.678Z,2.90
2019-05-25T20:23:40.727Z,2.80
2019-05-25T20:26:08.827Z,5.07
2019-05-25T20:31:58.563Z,3.37
2019-05-25T20:35:11.418Z,3.13
2019-05-25T20:37:39.491Z,2.40
2019-05-25T20:40:08.227Z,5.87
2019-05-25T20:42:36.442Z,4.57
2019-05-25T20:45:04.993Z,2.67
2019-05-25T20:47:33.014Z,2.70
2019-05-25T20:50:01.597Z,2.80
2019-05-25T20:52:29.589Z,2.07
2019-05-25T20:54:57.648Z,2.50
2019-05-25T20:57:35.087Z,2.10
2019-05-25T21:00:03.199Z,3.57
2019-05-25T21:02:31.465Z,2.33
2019-05-25T21:04:59.688Z,2.10
2019-05-25T21:07:27.743Z,1.97
2019-05-25T21:09:55.964Z,2.00
2019-05-25T21:12:24.136Z,2.10
2019-05-25T21:14:52.749Z,2.30
2019-05-25T21:17:20.853Z,2.73
2019-05-25T21:19:48.988Z,2.07
2019-05-25T21:22:17.161Z,3.73
2019-05-25T21:24:45.371Z,3.73
2019-05-25T21:27:13.708Z,2.53
2019-05-25T21:29:41.836Z,2.70
2019-05-25T21:32:10.318Z,2.23
2019-05-25T21:34:38.641Z,2.70
2019-05-25T21:37:06.682Z,2.70
2019-05-25T21:39:35.010Z,2.80
2019-05-25T21:42:03.207Z,2.70
2019-05-25T21:44:31.377Z,2.40
2019-05-25T21:46:59.461Z,2.80
2019-05-25T21:49:27.547Z,2.10
2019-05-25T21:51:55.886Z,2.50
2019-05-25T21:54:24.152Z,2.60
2019-05-25T21:56:52.905Z,3.97
2019-05-25T21:59:21.288Z,2.87
2019-05-25T22:01:49.471Z,2.90
2019-05-25T22:04:17.510Z,2.80
2019-05-25T22:06:45.945Z,3.20
2019-05-25T22:09:14.252Z,3.00
2019-05-25T22:11:42.354Z,2.30
2019-05-25T22:14:11.153Z,2.20
2019-05-25T22:16:39.927Z,2.57
2019-05-25T22:19:08.625Z,2.20
2019-05-25T22:21:37.026Z,2.30
2019-05-25T22:24:05.485Z,2.07
2019-05-25T22:26:33.837Z,2.13
2019-05-25T22:29:02.623Z,2.37
2019-05-25T22:31:30.700Z,2.40
2019-05-25T22:33:59.772Z,2.40
2019-05-25T22:36:39.834Z,2.50
2019-05-25T22:38:57.789Z,2.60
2019-05-25T22:41:26.827Z,2.70
2019-05-25T22:43:55.565Z,2.57
2019-05-25T22:46:24.274Z,2.50
2019-05-25T22:48:52.922Z,2.93
2019-05-25T22:51:20.926Z,3.00
2019-05-25T22:53:48.976Z,2.90
2019-05-25T22:56:17.019Z,3.30
2019-05-25T22:58:45.140Z,2.57
2019-05-25T23:01:13.432Z,3.60
2019-05-25T23:03:41.488Z,3.10
2019-05-25T23:06:09.622Z,3.03
2019-05-25T23:08:37.745Z,3.30
2019-05-25T23:11:05.756Z,3.43
2019-05-25T23:13:33.822Z,3.67
2019-05-25T23:16:01.967Z,3.83
2019-05-25T23:18:30.004Z,2.90
2019-05-25T23:20:58.012Z,3.17
2019-05-25T23:23:26.088Z,3.53
2019-05-25T23:25:54.103Z,3.03
2019-05-25T23:28:22.119Z,3.60
2019-05-25T23:30:50.130Z,3.20
2019-05-25T23:33:18.259Z,3.33
2019-05-25T23:35:46.362Z,3.77
2019-05-25T23:38:14.387Z,3.70
2019-05-25T23:40:42.413Z,4.00
2019-05-25T23:43:10.585Z,3.83
2019-05-25T23:45:39.170Z,3.70
2019-05-25T23:48:07.177Z,3.13
2019-05-25T23:50:35.204Z,3.83
2019-05-25T23:53:03.283Z,3.60
2019-05-25T23:55:31.330Z,3.37
2019-05-25T23:57:59.337Z,3.10
